Costa Fortuna — IBNY — position and weather

sailwx.info

Track history (hours):
 
Tides and Currents Weather Stations Pressure Air Temp Water Temp Dewpoint Dewpoint Depression Visibility Wind Speed Wind Dir Waves Ship Positions

Costa Fortuna

Last reported at 2017-Mar-20 23:33 UTC. Time now 2017-Mar-23 18:23 UTC.
Position N 37°58' E 122°08'.

Length 272 m; draft 8.3 m.

Type: Ship. MMSI: 247094800.

Date/timePositionNaut miles runAvg speedWind from/ knotsBaromVisibWave heightAir tempDewpointWater temp
2017-Mar-20 23:33N 37°58' E 122°08'2121.3
2017-Mar-20 22:33N 38°09' E 121°45'2120.9
2017-Mar-20 21:34N 38°20' E 121°22'1919.1
2017-Mar-20 20:33N 38°29' E 121°01'1212.5
2017-Mar-20 19:33N 38°33' E 120°45'1716.7
2017-Mar-20 18:33N 38°35' E 120°24'2220.1
2017-Mar-20 17:27N 38°37' E 119°56'11 0.5
2017-Mar-19 18:14N 38°42' E 120°08'1518.2
2017-Mar-19 17:26N 38°39' E 120°27'1914.9
2017-Mar-19 16:11N 38°38' E 120°51'2414.7
2017-Mar-19 14:33N 38°27' E 121°18'2119.2
2017-Mar-19 13:27N 38°16' E 121°41'  
2017-Mar-15 21:31N 38°09' E 121°49'1919.2
2017-Mar-15 20:33N 38°20' E 121°29'1918.5
2017-Mar-15 19:32N 38°27' E 121°07'1414.4
2017-Mar-15 18:34N 38°33' E 120°50'1414.3
2017-Mar-15 17:33N 38°36' E 120°33'3 0.1
2017-Mar-14 16:33N 38°39' E 120°33'1717.0
2017-Mar-14 15:33N 38°36' E 120°54'1716.6
2017-Mar-14 14:33N 38°30' E 121°14'1817.7
2017-Mar-14 13:33N 38°20' E 121°33'1817.8
2017-Mar-14 12:33N 38°10' E 121°52'1818.0
2017-Mar-14 11:33N 38°01' E 122°12'1818.4
2017-Mar-14 10:33N 37°52' E 122°32'1918.7
2017-Mar-14 09:33N 37°43' E 122°52'  
Track history (hours):
 
Tides and Currents Weather Stations Pressure Air Temp Water Temp Dewpoint Dewpoint Depression Visibility Wind Speed Wind Dir Waves Ship Positions

Costa Fortuna

Last reported at 2017-Mar-20 23:33 UTC. Time now 2017-Mar-23 18:23 UTC.
Position N 37°58' E 122°08'.

Length 272 m; draft 8.3 m.

Type: Ship. MMSI: 247094800.

Date/timePositionNaut miles runAvg speedWind from/ knotsBaromVisibWave heightAir tempDewpointWater temp
2017-Mar-20 23:33N 37°58' E 122°08'2121.3
2017-Mar-20 22:33N 38°09' E 121°45'2120.9
2017-Mar-20 21:34N 38°20' E 121°22'1919.1
2017-Mar-20 20:33N 38°29' E 121°01'1212.5
2017-Mar-20 19:33N 38°33' E 120°45'1716.7
2017-Mar-20 18:33N 38°35' E 120°24'2220.1
2017-Mar-20 17:27N 38°37' E 119°56'11 0.5
2017-Mar-19 18:14N 38°42' E 120°08'1518.2
2017-Mar-19 17:26N 38°39' E 120°27'1914.9
2017-Mar-19 16:11N 38°38' E 120°51'2414.7
2017-Mar-19 14:33N 38°27' E 121°18'2119.2
2017-Mar-19 13:27N 38°16' E 121°41'  
2017-Mar-15 21:31N 38°09' E 121°49'1919.2
2017-Mar-15 20:33N 38°20' E 121°29'1918.5
2017-Mar-15 19:32N 38°27' E 121°07'1414.4
2017-Mar-15 18:34N 38°33' E 120°50'1414.3
2017-Mar-15 17:33N 38°36' E 120°33'3 0.1
2017-Mar-14 16:33N 38°39' E 120°33'1717.0
2017-Mar-14 15:33N 38°36' E 120°54'1716.6
2017-Mar-14 14:33N 38°30' E 121°14'1817.7
2017-Mar-14 13:33N 38°20' E 121°33'1817.8
2017-Mar-14 12:33N 38°10' E 121°52'1818.0
2017-Mar-14 11:33N 38°01' E 122°12'1818.4
2017-Mar-14 10:33N 37°52' E 122°32'1918.7
2017-Mar-14 09:33N 37°43' E 122°52'  

Dump ship's entire track history